sensor_id;sensor_type;location;lat;lon;timestamp;temperature;humidity
46608;DHT22;32330;51.936;7.184;2022-10-22T03:59:43;11.60;99.90
46608;DHT22;32330;51.936;7.184;2022-10-22T04:02:11;11.60;99.90
46608;DHT22;32330;51.936;7.184;2022-10-22T04:04:37;11.60;99.90
46608;DHT22;32330;51.936;7.184;2022-10-22T04:07:04;11.50;99.90
46608;DHT22;32330;51.936;7.184;2022-10-22T04:09:31;11.50;99.90
46608;DHT22;32330;51.936;7.184;2022-10-22T04:11:57;11.50;99.90
46608;DHT22;32330;51.936;7.184;2022-10-22T04:14:22;11.40;99.90
46608;DHT22;32330;51.936;7.184;2022-10-22T04:16:48;11.40;99.90
46608;DHT22;32330;51.936;7.184;2022-10-22T04:19:14;11.50;99.90
46608;DHT22;32330;51.936;7.184;2022-10-22T04:21:39;11.40;99.90
46608;DHT22;32330;51.936;7.184;2022-10-22T04:24:05;11.40;99.90
46608;DHT22;32330;51.936;7.184;2022-10-22T04:26:30;11.40;99.90
46608;DHT22;32330;51.936;7.184;2022-10-22T04:28:56;11.40;99.90
46608;DHT22;32330;51.936;7.184;2022-10-22T04:31:23;11.40;99.90
46608;DHT22;32330;51.936;7.184;2022-10-22T04:33:57;11.50;99.90
46608;DHT22;32330;51.936;7.184;2022-10-22T04:36:24;11.50;99.90
46608;DHT22;32330;51.936;7.184;2022-10-22T04:38:58;11.50;99.90
46608;DHT22;32330;51.936;7.184;2022-10-22T04:41:27;11.40;99.90
46608;DHT22;32330;51.936;7.184;2022-10-22T04:43:54;11.40;99.90
46608;DHT22;32330;51.936;7.184;2022-10-22T04:46:20;11.40;99.90
46608;DHT22;32330;51.936;7.184;2022-10-22T04:48:46;11.40;99.90
46608;DHT22;32330;51.936;7.184;2022-10-22T04:51:17;11.40;99.90
46608;DHT22;32330;51.936;7.184;2022-10-22T04:53:43;11.50;99.90
46608;DHT22;32330;51.936;7.184;2022-10-22T04:56:12;11.40;99.90
46608;DHT22;32330;51.936;7.184;2022-10-22T04:58:38;11.40;99.90
46608;DHT22;32330;51.936;7.184;2022-10-22T05:01:18;11.40;99.90
46608;DHT22;32330;51.936;7.184;2022-10-22T05:03:44;11.50;99.90
46608;DHT22;32330;51.936;7.184;2022-10-22T05:06:11;11.50;99.90
46608;DHT22;32330;51.936;7.184;2022-10-22T05:08:37;11.50;99.90
46608;DHT22;32330;51.936;7.184;2022-10-22T05:13:37;11.50;99.90
46608;DHT22;32330;51.936;7.184;2022-10-22T05:16:03;11.50;99.90
46608;DHT22;32330;51.936;7.184;2022-10-22T05:18:28;11.50;99.90
46608;DHT22;32330;51.936;7.184;2022-10-22T05:20:54;11.50;99.90
46608;DHT22;32330;51.936;7.184;2022-10-22T05:23:19;11.60;99.90
46608;DHT22;32330;51.936;7.184;2022-10-22T05:25:45;11.70;99.90
46608;DHT22;32330;51.936;7.184;2022-10-22T05:28:10;11.70;99.90
46608;DHT22;32330;51.936;7.184;2022-10-22T05:30:36;11.80;99.90
46608;DHT22;32330;51.936;7.184;2022-10-22T05:33:02;11.80;99.90
46608;DHT22;32330;51.936;7.184;2022-10-22T05:35:27;11.80;99.90
46608;DHT22;32330;51.936;7.184;2022-10-22T05:37:53;11.80;99.90
46608;DHT22;32330;51.936;7.184;2022-10-22T05:40:18;11.90;99.90
46608;DHT22;32330;51.936;7.184;2022-10-22T05:42:44;11.90;99.90
46608;DHT22;32330;51.936;7.184;2022-10-22T05:45:09;11.90;99.90
46608;DHT22;32330;51.936;7.184;2022-10-22T05:47:35;11.90;99.90
46608;DHT22;32330;51.936;7.184;2022-10-22T05:50:00;11.80;99.90
46608;DHT22;32330;51.936;7.184;2022-10-22T05:52:26;11.90;99.90
46608;DHT22;32330;51.936;7.184;2022-10-22T05:54:51;12.00;99.90
46608;DHT22;32330;51.936;7.184;2022-10-22T05:57:17;12.00;99.90
46608;DHT22;32330;51.936;7.184;2022-10-22T05:59:42;12.00;99.90
46608;DHT22;32330;51.936;7.184;2022-10-22T06:02:08;12.00;99.90
46608;DHT22;32330;51.936;7.184;2022-10-22T06:04:34;12.00;99.90
46608;DHT22;32330;51.936;7.184;2022-10-22T06:07:00;12.10;99.90
46608;DHT22;32330;51.936;7.184;2022-10-22T06:09:29;12.10;99.90
46608;DHT22;32330;51.936;7.184;2022-10-22T06:11:56;12.00;99.90
46608;DHT22;32330;51.936;7.184;2022-10-22T06:14:22;12.10;99.90
46608;DHT22;32330;51.936;7.184;2022-10-22T06:16:48;12.10;99.90
46608;DHT22;32330;51.936;7.184;2022-10-22T06:19:16;12.10;99.90
46608;DHT22;32330;51.936;7.184;2022-10-22T06:21:42;12.10;99.90
46608;DHT22;32330;51.936;7.184;2022-10-22T06:24:09;12.10;99.90
46608;DHT22;32330;51.936;7.184;2022-10-22T06:26:34;12.10;99.90
46608;DHT22;32330;51.936;7.184;2022-10-22T06:29:00;12.10;99.90
46608;DHT22;32330;51.936;7.184;2022-10-22T06:31:26;12.10;99.90
46608;DHT22;32330;51.936;7.184;2022-10-22T06:33:53;12.10;99.90
46608;DHT22;32330;51.936;7.184;2022-10-22T06:36:20;12.10;99.90
46608;DHT22;32330;51.936;7.184;2022-10-22T06:38:46;12.10;99.90
46608;DHT22;32330;51.936;7.184;2022-10-22T06:41:14;12.20;99.90
46608;DHT22;32330;51.936;7.184;2022-10-22T06:43:42;12.10;99.90
46608;DHT22;32330;51.936;7.184;2022-10-22T06:46:12;12.20;99.90
46608;DHT22;32330;51.936;7.184;2022-10-22T06:48:38;12.30;99.90
46608;DHT22;32330;51.936;7.184;2022-10-22T06:51:06;12.30;99.90
46608;DHT22;32330;51.936;7.184;2022-10-22T06:53:33;12.40;99.90
46608;DHT22;32330;51.936;7.184;2022-10-22T06:56:03;12.40;99.90
46608;DHT22;32330;51.936;7.184;2022-10-22T06:58:28;12.40;99.90
46608;DHT22;32330;51.936;7.184;2022-10-22T07:01:12;12.40;99.90
46608;DHT22;32330;51.936;7.184;2022-10-22T07:03:38;12.50;99.90
46608;DHT22;32330;51.936;7.184;2022-10-22T07:06:09;12.50;99.90
46608;DHT22;32330;51.936;7.184;2022-10-22T07:08:36;12.60;99.90
46608;DHT22;32330;51.936;7.184;2022-10-22T07:13:41;12.70;99.90
46608;DHT22;32330;51.936;7.184;2022-10-22T07:16:07;12.80;99.90
46608;DHT22;32330;51.936;7.184;2022-10-22T07:18:33;12.90;99.90
46608;DHT22;32330;51.936;7.184;2022-10-22T07:21:00;13.00;99.90
46608;DHT22;32330;51.936;7.184;2022-10-22T07:23:27;13.10;99.90
46608;DHT22;32330;51.936;7.184;2022-10-22T07:25:52;13.00;99.90
46608;DHT22;32330;51.936;7.184;2022-10-22T07:28:18;13.10;99.90
46608;DHT22;32330;51.936;7.184;2022-10-22T07:30:43;13.20;99.90
46608;DHT22;32330;51.936;7.184;2022-10-22T07:33:09;13.20;99.90
46608;DHT22;32330;51.936;7.184;2022-10-22T07:35:37;13.30;99.90
46608;DHT22;32330;51.936;7.184;2022-10-22T07:38:03;13.30;99.90
46608;DHT22;32330;51.936;7.184;2022-10-22T07:40:29;13.50;99.90
46608;DHT22;32330;51.936;7.184;2022-10-22T07:42:54;13.60;99.90
46608;DHT22;32330;51.936;7.184;2022-10-22T07:45:20;13.70;99.90
46608;DHT22;32330;51.936;7.184;2022-10-22T07:47:46;13.70;99.90
46608;DHT22;32330;51.936;7.184;2022-10-22T07:50:13;13.70;99.90
46608;DHT22;32330;51.936;7.184;2022-10-22T07:52:38;13.80;99.90
46608;DHT22;32330;51.936;7.184;2022-10-22T07:55:04;13.90;99.90
46608;DHT22;32330;51.936;7.184;2022-10-22T07:57:30;14.10;99.90
46608;DHT22;32330;51.936;7.184;2022-10-22T07:59:57;14.20;99.90
46608;DHT22;32330;51.936;7.184;2022-10-22T08:02:23;14.30;99.90
46608;DHT22;32330;51.936;7.184;2022-10-22T08:04:49;14.40;99.90
46608;DHT22;32330;51.936;7.184;2022-10-22T08:07:15;14.50;99.90
46608;DHT22;32330;51.936;7.184;2022-10-22T08:09:40;14.60;99.90
46608;DHT22;32330;51.936;7.184;2022-10-22T08:12:06;14.60;99.90
46608;DHT22;32330;51.936;7.184;2022-10-22T08:14:32;14.60;99.90
46608;DHT22;32330;51.936;7.184;2022-10-22T08:16:57;14.60;99.90
46608;DHT22;32330;51.936;7.184;2022-10-22T08:19:23;14.60;99.90
46608;DHT22;32330;51.936;7.184;2022-10-22T08:21:49;14.80;99.90
46608;DHT22;32330;51.936;7.184;2022-10-22T08:24:15;14.80;99.90
46608;DHT22;32330;51.936;7.184;2022-10-22T08:26:41;14.90;99.90
46608;DHT22;32330;51.936;7.184;2022-10-22T08:29:07;15.00;99.90
46608;DHT22;32330;51.936;7.184;2022-10-22T08:31:33;15.10;99.90
46608;DHT22;32330;51.936;7.184;2022-10-22T08:33:58;15.20;99.90
46608;DHT22;32330;51.936;7.184;2022-10-22T08:36:24;15.30;99.90
46608;DHT22;32330;51.936;7.184;2022-10-22T08:38:49;15.30;99.90
46608;DHT22;32330;51.936;7.184;2022-10-22T08:41:17;15.40;99.90
46608;DHT22;32330;51.936;7.184;2022-10-22T08:44:11;15.50;99.90
46608;DHT22;32330;51.936;7.184;2022-10-22T08:49:29;15.60;99.90
46608;DHT22;32330;51.936;7.184;2022-10-22T08:51:57;15.60;99.90
46608;DHT22;32330;51.936;7.184;2022-10-22T08:54:52;15.60;99.90
46608;DHT22;32330;51.936;7.184;2022-10-22T09:02:29;15.90;99.90
46608;DHT22;32330;51.936;7.184;2022-10-22T09:07:40;16.00;99.90
46608;DHT22;32330;51.936;7.184;2022-10-22T09:10:10;16.00;99.90
46608;DHT22;32330;51.936;7.184;2022-10-22T09:12:36;15.90;99.90
46608;DHT22;32330;51.936;7.184;2022-10-22T09:15:01;15.90;99.90
46608;DHT22;32330;51.936;7.184;2022-10-22T09:20:27;16.00;99.90
46608;DHT22;32330;51.936;7.184;2022-10-22T09:23:19;16.00;99.90
46608;DHT22;32330;51.936;7.184;2022-10-22T09:25:47;16.10;99.90
46608;DHT22;32330;51.936;7.184;2022-10-22T09:28:13;16.10;99.90
46608;DHT22;32330;51.936;7.184;2022-10-22T09:30:39;16.10;99.90
46608;DHT22;32330;51.936;7.184;2022-10-22T09:33:12;16.10;99.90
46608;DHT22;32330;51.936;7.184;2022-10-22T09:35:47;16.10;99.90
46608;DHT22;32330;51.936;7.184;2022-10-22T09:38:16;16.10;99.90
46608;DHT22;32330;51.936;7.184;2022-10-22T09:40:46;16.30;99.90
46608;DHT22;32330;51.936;7.184;2022-10-22T09:43:13;16.20;99.80
46608;DHT22;32330;51.936;7.184;2022-10-22T09:45:39;16.20;99.90
46608;DHT22;32330;51.936;7.184;2022-10-22T09:48:16;16.30;99.90
46608;DHT22;32330;51.936;7.184;2022-10-22T09:50:48;16.30;98.90
46608;DHT22;32330;51.936;7.184;2022-10-22T09:53:35;16.20;97.80
46608;DHT22;32330;51.936;7.184;2022-10-22T09:56:06;16.30;97.30
46608;DHT22;32330;51.936;7.184;2022-10-22T09:58:40;16.40;97.90
46608;DHT22;32330;51.936;7.184;2022-10-22T10:01:06;16.50;99.90
46608;DHT22;32330;51.936;7.184;2022-10-22T10:03:31;16.40;95.70
46608;DHT22;32330;51.936;7.184;2022-10-22T10:05:59;16.40;96.60
46608;DHT22;32330;51.936;7.184;2022-10-22T10:08:25;16.50;95.10
46608;DHT22;32330;51.936;7.184;2022-10-22T10:11:06;16.50;96.30
46608;DHT22;32330;51.936;7.184;2022-10-22T10:16:25;16.70;94.20
46608;DHT22;32330;51.936;7.184;2022-10-22T10:24:30;16.60;92.20
46608;DHT22;32330;51.936;7.184;2022-10-22T10:27:14;16.60;92.20
46608;DHT22;32330;51.936;7.184;2022-10-22T10:29:54;16.60;92.90
46608;DHT22;32330;51.936;7.184;2022-10-22T10:43:10;16.90;83.90
46608;DHT22;32330;51.936;7.184;2022-10-22T10:46:02;17.00;81.70
46608;DHT22;32330;51.936;7.184;2022-10-22T10:48:38;17.10;86.70
46608;DHT22;32330;51.936;7.184;2022-10-22T10:54:45;16.90;80.00
46608;DHT22;32330;51.936;7.184;2022-10-22T10:57:42;16.80;77.70
46608;DHT22;32330;51.936;7.184;2022-10-22T11:00:13;16.80;84.00
46608;DHT22;32330;51.936;7.184;2022-10-22T11:08:16;16.60;90.00
46608;DHT22;32330;51.936;7.184;2022-10-22T11:10:50;16.60;86.60
46608;DHT22;32330;51.936;7.184;2022-10-22T11:13:32;16.60;91.60
46608;DHT22;32330;51.936;7.184;2022-10-22T11:21:54;16.40;93.10
46608;DHT22;32330;51.936;7.184;2022-10-22T11:24:26;16.40;93.90
46608;DHT22;32330;51.936;7.184;2022-10-22T11:27:03;16.30;95.50
46608;DHT22;32330;51.936;7.184;2022-10-22T11:29:36;16.30;97.50
46608;DHT22;32330;51.936;7.184;2022-10-22T11:32:06;16.30;99.50
46608;DHT22;32330;51.936;7.184;2022-10-22T11:37:09;16.10;99.90
46608;DHT22;32330;51.936;7.184;2022-10-22T11:39:49;16.00;99.90
46608;DHT22;32330;51.936;7.184;2022-10-22T11:42:35;16.00;99.90
46608;DHT22;32330;51.936;7.184;2022-10-22T11:47:52;16.00;99.90
46608;DHT22;32330;51.936;7.184;2022-10-22T11:53:03;15.90;99.90
46608;DHT22;32330;51.936;7.184;2022-10-22T12:11:39;15.80;99.90
46608;DHT22;32330;51.936;7.184;2022-10-22T12:14:56;15.90;99.90
46608;DHT22;32330;51.936;7.184;2022-10-22T12:17:13;15.90;99.90
46608;DHT22;32330;51.936;7.184;2022-10-22T12:24:48;16.00;99.90
46608;DHT22;32330;51.936;7.184;2022-10-22T12:27:19;16.10;99.90
46608;DHT22;32330;51.936;7.184;2022-10-22T12:29:45;16.00;99.90
46608;DHT22;32330;51.936;7.184;2022-10-22T12:32:13;16.00;99.90
46608;DHT22;32330;51.936;7.184;2022-10-22T12:34:49;15.90;99.90
46608;DHT22;32330;51.936;7.184;2022-10-22T12:37:16;16.00;99.90
46608;DHT22;32330;51.936;7.184;2022-10-22T12:39:44;16.00;99.90
46608;DHT22;32330;51.936;7.184;2022-10-22T12:42:14;15.90;99.90
46608;DHT22;32330;51.936;7.184;2022-10-22T12:44:43;16.00;99.90
46608;DHT22;32330;51.936;7.184;2022-10-22T12:47:14;16.20;99.90
46608;DHT22;32330;51.936;7.184;2022-10-22T12:49:43;16.20;99.90
46608;DHT22;32330;51.936;7.184;2022-10-22T12:52:15;16.50;99.90
46608;DHT22;32330;51.936;7.184;2022-10-22T12:54:41;16.60;99.90
46608;DHT22;32330;51.936;7.184;2022-10-22T12:57:12;16.80;99.90
46608;DHT22;32330;51.936;7.184;2022-10-22T12:59:39;16.90;99.90
46608;DHT22;32330;51.936;7.184;2022-10-22T13:02:22;16.80;99.90
46608;DHT22;32330;51.936;7.184;2022-10-22T13:05:15;16.70;99.90
46608;DHT22;32330;51.936;7.184;2022-10-22T13:07:45;16.70;99.90
46608;DHT22;32330;51.936;7.184;2022-10-22T13:10:23;16.90;99.90
46608;DHT22;32330;51.936;7.184;2022-10-22T13:12:55;17.00;99.90
46608;DHT22;32330;51.936;7.184;2022-10-22T13:18:22;17.30;99.90
46608;DHT22;32330;51.936;7.184;2022-10-22T13:20:51;17.30;97.50
46608;DHT22;32330;51.936;7.184;2022-10-22T13:23:22;17.20;96.90
46608;DHT22;32330;51.936;7.184;2022-10-22T13:26:00;17.30;97.40
46608;DHT22;32330;51.936;7.184;2022-10-22T13:28:28;17.10;95.30
46608;DHT22;32330;51.936;7.184;2022-10-22T13:31:00;17.00;98.10
46608;DHT22;32330;51.936;7.184;2022-10-22T13:33:50;17.00;97.50
46608;DHT22;32330;51.936;7.184;2022-10-22T13:36:15;16.80;96.50
46608;DHT22;32330;51.936;7.184;2022-10-22T13:38:42;16.90;99.40
46608;DHT22;32330;51.936;7.184;2022-10-22T13:43:43;16.90;97.30
46608;DHT22;32330;51.936;7.184;2022-10-22T13:46:09;17.00;96.10
46608;DHT22;32330;51.936;7.184;2022-10-22T13:48:35;16.90;96.70
46608;DHT22;32330;51.936;7.184;2022-10-22T13:51:01;16.80;97.20
46608;DHT22;32330;51.936;7.184;2022-10-22T13:53:29;16.80;95.50
46608;DHT22;32330;51.936;7.184;2022-10-22T13:55:55;16.70;96.40
46608;DHT22;32330;51.936;7.184;2022-10-22T13:58:22;16.70;97.30
46608;DHT22;32330;51.936;7.184;2022-10-22T14:00:52;16.80;97.20
46608;DHT22;32330;51.936;7.184;2022-10-22T14:03:22;16.70;96.10
46608;DHT22;32330;51.936;7.184;2022-10-22T14:05:49;16.70;96.40
46608;DHT22;32330;51.936;7.184;2022-10-22T14:08:17;16.60;96.90
46608;DHT22;32330;51.936;7.184;2022-10-22T14:10:43;16.70;96.40
46608;DHT22;32330;51.936;7.184;2022-10-22T14:13:13;16.70;96.50
46608;DHT22;32330;51.936;7.184;2022-10-22T14:15:39;16.70;97.60
46608;DHT22;32330;51.936;7.184;2022-10-22T14:18:07;16.70;97.20
46608;DHT22;32330;51.936;7.184;2022-10-22T14:20:35;16.70;96.70
46608;DHT22;32330;51.936;7.184;2022-10-22T14:23:12;16.70;97.20
46608;DHT22;32330;51.936;7.184;2022-10-22T14:25:39;16.70;97.40
46608;DHT22;32330;51.936;7.184;2022-10-22T14:28:04;16.70;97.00
46608;DHT22;32330;51.936;7.184;2022-10-22T14:30:30;16.70;98.40
46608;DHT22;32330;51.936;7.184;2022-10-22T14:32:57;16.80;97.40
46608;DHT22;32330;51.936;7.184;2022-10-22T14:35:23;16.80;98.30
46608;DHT22;32330;51.936;7.184;2022-10-22T14:37:49;16.90;98.40
46608;DHT22;32330;51.936;7.184;2022-10-22T14:40:18;16.90;98.40
46608;DHT22;32330;51.936;7.184;2022-10-22T14:42:46;16.90;97.50
46608;DHT22;32330;51.936;7.184;2022-10-22T14:45:21;16.90;96.20
46608;DHT22;32330;51.936;7.184;2022-10-22T14:47:48;16.80;94.90
46608;DHT22;32330;51.936;7.184;2022-10-22T14:50:14;16.90;97.40
46608;DHT22;32330;51.936;7.184;2022-10-22T14:52:40;16.90;97.00
46608;DHT22;32330;51.936;7.184;2022-10-22T14:55:12;16.90;95.40
46608;DHT22;32330;51.936;7.184;2022-10-22T14:57:38;16.90;96.20
46608;DHT22;32330;51.936;7.184;2022-10-22T15:00:05;17.00;95.70
46608;DHT22;32330;51.936;7.184;2022-10-22T15:02:31;17.00;93.90
46608;DHT22;32330;51.936;7.184;2022-10-22T15:04:56;17.10;93.30
46608;DHT22;32330;51.936;7.184;2022-10-22T15:07:22;17.00;91.80
46608;DHT22;32330;51.936;7.184;2022-10-22T15:09:49;17.10;91.90
46608;DHT22;32330;51.936;7.184;2022-10-22T15:12:15;17.10;91.00
46608;DHT22;32330;51.936;7.184;2022-10-22T15:14:40;17.10;91.70
46608;DHT22;32330;51.936;7.184;2022-10-22T15:17:06;17.10;90.40
46608;DHT22;32330;51.936;7.184;2022-10-22T15:19:31;17.00;90.10
46608;DHT22;32330;51.936;7.184;2022-10-22T15:21:57;17.00;90.00
46608;DHT22;32330;51.936;7.184;2022-10-22T15:24:24;16.90;88.70
46608;DHT22;32330;51.936;7.184;2022-10-22T15:26:49;16.80;89.50
46608;DHT22;32330;51.936;7.184;2022-10-22T15:29:17;16.80;86.70
46608;DHT22;32330;51.936;7.184;2022-10-22T15:31:48;16.70;89.10
46608;DHT22;32330;51.936;7.184;2022-10-22T15:34:20;16.60;90.30
46608;DHT22;32330;51.936;7.184;2022-10-22T15:36:46;16.60;90.60
46608;DHT22;32330;51.936;7.184;2022-10-22T15:39:14;16.50;90.20
46608;DHT22;32330;51.936;7.184;2022-10-22T15:41:40;16.50;91.10
46608;DHT22;32330;51.936;7.184;2022-10-22T15:44:06;16.50;91.00
46608;DHT22;32330;51.936;7.184;2022-10-22T15:46:33;16.40;91.60
46608;DHT22;32330;51.936;7.184;2022-10-22T15:48:59;16.40;91.80
46608;DHT22;32330;51.936;7.184;2022-10-22T15:51:25;16.30;91.70
46608;DHT22;32330;51.936;7.184;2022-10-22T15:53:56;16.30;92.40
46608;DHT22;32330;51.936;7.184;2022-10-22T15:56:22;16.20;92.70
46608;DHT22;32330;51.936;7.184;2022-10-22T15:58:54;16.20;92.50
46608;DHT22;32330;51.936;7.184;2022-10-22T16:01:20;16.10;93.20
46608;DHT22;32330;51.936;7.184;2022-10-22T16:03:45;16.10;93.30
46608;DHT22;32330;51.936;7.184;2022-10-22T16:06:11;16.00;93.70
46608;DHT22;32330;51.936;7.184;2022-10-22T16:08:37;16.00;94.40
46608;DHT22;32330;51.936;7.184;2022-10-22T16:11:03;15.90;95.00
46608;DHT22;32330;51.936;7.184;2022-10-22T16:13:32;15.90;95.20
46608;DHT22;32330;51.936;7.184;2022-10-22T16:16:05;15.80;96.30
46608;DHT22;32330;51.936;7.184;2022-10-22T16:18:34;15.80;95.90
46608;DHT22;32330;51.936;7.184;2022-10-22T16:21:00;15.70;95.90
46608;DHT22;32330;51.936;7.184;2022-10-22T16:23:26;15.70;96.30
46608;DHT22;32330;51.936;7.184;2022-10-22T16:25:54;15.60;96.90
46608;DHT22;32330;51.936;7.184;2022-10-22T16:28:19;15.50;97.20
46608;DHT22;32330;51.936;7.184;2022-10-22T16:30:45;15.50;97.10
46608;DHT22;32330;51.936;7.184;2022-10-22T16:33:11;15.40;97.80
46608;DHT22;32330;51.936;7.184;2022-10-22T16:35:41;15.40;98.00
46608;DHT22;32330;51.936;7.184;2022-10-22T16:38:10;15.40;98.00
46608;DHT22;32330;51.936;7.184;2022-10-22T16:40:37;15.30;99.00
46608;DHT22;32330;51.936;7.184;2022-10-22T16:43:02;15.30;98.90
46608;DHT22;32330;51.936;7.184;2022-10-22T16:45:28;15.20;99.00
46608;DHT22;32330;51.936;7.184;2022-10-22T16:47:53;15.20;99.10
46608;DHT22;32330;51.936;7.184;2022-10-22T16:50:19;15.20;98.90
46608;DHT22;32330;51.936;7.184;2022-10-22T16:52:45;15.10;98.70
46608;DHT22;32330;51.936;7.184;2022-10-22T16:55:10;15.10;99.10
46608;DHT22;32330;51.936;7.184;2022-10-22T16:57:36;15.00;99.00
46608;DHT22;32330;51.936;7.184;2022-10-22T17:00:05;15.00;99.50
46608;DHT22;32330;51.936;7.184;2022-10-22T17:02:34;14.90;99.60
46608;DHT22;32330;51.936;7.184;2022-10-22T17:05:01;14.90;99.90
46608;DHT22;32330;51.936;7.184;2022-10-22T17:07:27;14.80;99.90
46608;DHT22;32330;51.936;7.184;2022-10-22T17:09:53;14.80;99.90
46608;DHT22;32330;51.936;7.184;2022-10-22T17:12:18;14.70;99.90
46608;DHT22;32330;51.936;7.184;2022-10-22T17:14:44;14.60;99.90
46608;DHT22;32330;51.936;7.184;2022-10-22T17:17:09;14.60;99.90
46608;DHT22;32330;51.936;7.184;2022-10-22T17:19:35;14.50;99.90
46608;DHT22;32330;51.936;7.184;2022-10-22T17:22:03;14.40;99.90
46608;DHT22;32330;51.936;7.184;2022-10-22T17:24:29;14.30;99.90
46608;DHT22;32330;51.936;7.184;2022-10-22T17:26:54;14.20;99.90
46608;DHT22;32330;51.936;7.184;2022-10-22T17:29:20;14.20;99.90
46608;DHT22;32330;51.936;7.184;2022-10-22T17:31:46;14.10;99.90
46608;DHT22;32330;51.936;7.184;2022-10-22T17:34:14;14.00;99.90
46608;DHT22;32330;51.936;7.184;2022-10-22T17:36:41;14.00;99.90
46608;DHT22;32330;51.936;7.184;2022-10-22T17:39:07;13.90;99.90
46608;DHT22;32330;51.936;7.184;2022-10-22T17:41:36;13.90;99.90
46608;DHT22;32330;51.936;7.184;2022-10-22T17:44:04;13.80;99.90
46608;DHT22;32330;51.936;7.184;2022-10-22T17:46:31;13.80;99.90
46608;DHT22;32330;51.936;7.184;2022-10-22T17:48:58;13.70;99.90
46608;DHT22;32330;51.936;7.184;2022-10-22T17:51:26;13.70;99.90
46608;DHT22;32330;51.936;7.184;2022-10-22T17:53:52;13.70;99.90
46608;DHT22;32330;51.936;7.184;2022-10-22T17:56:21;13.60;99.90
46608;DHT22;32330;51.936;7.184;2022-10-22T17:58:47;13.60;99.90
46608;DHT22;32330;51.936;7.184;2022-10-22T18:01:20;13.50;99.90
46608;DHT22;32330;51.936;7.184;2022-10-22T18:03:46;13.50;99.90
46608;DHT22;32330;51.936;7.184;2022-10-22T18:06:12;13.40;99.90
46608;DHT22;32330;51.936;7.184;2022-10-22T18:08:38;13.40;99.90
46608;DHT22;32330;51.936;7.184;2022-10-22T18:11:05;13.30;99.90
46608;DHT22;32330;51.936;7.184;2022-10-22T18:13:31;13.30;99.90
46608;DHT22;32330;51.936;7.184;2022-10-22T18:15:57;13.20;99.90
46608;DHT22;32330;51.936;7.184;2022-10-22T18:18:23;13.20;99.90
46608;DHT22;32330;51.936;7.184;2022-10-22T18:20:49;13.20;99.90
46608;DHT22;32330;51.936;7.184;2022-10-22T18:23:15;13.10;99.90
46608;DHT22;32330;51.936;7.184;2022-10-22T18:25:41;13.10;99.90
46608;DHT22;32330;51.936;7.184;2022-10-22T18:28:06;13.10;99.90
46608;DHT22;32330;51.936;7.184;2022-10-22T18:30:32;13.00;99.90
46608;DHT22;32330;51.936;7.184;2022-10-22T18:32:57;13.00;99.90
46608;DHT22;32330;51.936;7.184;2022-10-22T18:35:23;12.90;99.90
46608;DHT22;32330;51.936;7.184;2022-10-22T18:37:48;12.90;99.90
46608;DHT22;32330;51.936;7.184;2022-10-22T18:40:14;12.90;99.90
46608;DHT22;32330;51.936;7.184;2022-10-22T18:42:39;12.90;99.90
46608;DHT22;32330;51.936;7.184;2022-10-22T18:45:05;12.80;99.90
46608;DHT22;32330;51.936;7.184;2022-10-22T18:47:31;12.70;99.90
46608;DHT22;32330;51.936;7.184;2022-10-22T18:49:57;12.70;99.90
46608;DHT22;32330;51.936;7.184;2022-10-22T18:52:22;12.60;99.90
46608;DHT22;32330;51.936;7.184;2022-10-22T18:54:48;12.60;99.90
46608;DHT22;32330;51.936;7.184;2022-10-22T18:57:13;12.60;99.90
46608;DHT22;32330;51.936;7.184;2022-10-22T18:59:39;12.50;99.90
46608;DHT22;32330;51.936;7.184;2022-10-22T19:02:04;12.50;99.90
46608;DHT22;32330;51.936;7.184;2022-10-22T19:04:30;12.50;99.90
46608;DHT22;32330;51.936;7.184;2022-10-22T19:07:04;12.50;99.90
46608;DHT22;32330;51.936;7.184;2022-10-22T19:09:30;12.40;99.90
46608;DHT22;32330;51.936;7.184;2022-10-22T19:11:56;12.40;99.90
46608;DHT22;32330;51.936;7.184;2022-10-22T19:14:21;12.40;99.90
46608;DHT22;32330;51.936;7.184;2022-10-22T19:16:48;12.40;99.90
46608;DHT22;32330;51.936;7.184;2022-10-22T19:19:17;12.40;99.90
46608;DHT22;32330;51.936;7.184;2022-10-22T19:21:43;12.40;99.90
46608;DHT22;32330;51.936;7.184;2022-10-22T19:24:09;12.30;99.90
46608;DHT22;32330;51.936;7.184;2022-10-22T19:26:35;12.30;99.90
46608;DHT22;32330;51.936;7.184;2022-10-22T19:29:01;12.20;99.90
46608;DHT22;32330;51.936;7.184;2022-10-22T19:31:28;12.20;99.90
46608;DHT22;32330;51.936;7.184;2022-10-22T19:33:54;12.20;99.90
46608;DHT22;32330;51.936;7.184;2022-10-22T19:36:21;12.10;99.90
46608;DHT22;32330;51.936;7.184;2022-10-22T19:38:52;12.10;99.90
46608;DHT22;32330;51.936;7.184;2022-10-22T19:41:19;12.10;99.90
46608;DHT22;32330;51.936;7.184;2022-10-22T19:43:50;12.10;99.90
46608;DHT22;32330;51.936;7.184;2022-10-22T19:46:16;12.10;99.90
46608;DHT22;32330;51.936;7.184;2022-10-22T19:48:41;12.10;99.90
46608;DHT22;32330;51.936;7.184;2022-10-22T19:51:10;12.00;99.90
46608;DHT22;32330;51.936;7.184;2022-10-22T19:53:38;12.00;99.90
46608;DHT22;32330;51.936;7.184;2022-10-22T19:56:06;12.00;99.90
46608;DHT22;32330;51.936;7.184;2022-10-22T19:58:32;11.90;99.90
46608;DHT22;32330;51.936;7.184;2022-10-22T20:01:03;11.90;99.90
46608;DHT22;32330;51.936;7.184;2022-10-22T20:03:29;11.90;99.90
46608;DHT22;32330;51.936;7.184;2022-10-22T20:05:54;11.90;99.90
46608;DHT22;32330;51.936;7.184;2022-10-22T20:08:20;11.90;99.90
46608;DHT22;32330;51.936;7.184;2022-10-22T20:10:48;11.80;99.90
46608;DHT22;32330;51.936;7.184;2022-10-22T20:13:14;11.80;99.90
46608;DHT22;32330;51.936;7.184;2022-10-22T20:15:41;11.80;99.90
46608;DHT22;32330;51.936;7.184;2022-10-22T20:18:06;11.80;99.90
46608;DHT22;32330;51.936;7.184;2022-10-22T20:20:32;11.80;99.90
46608;DHT22;32330;51.936;7.184;2022-10-22T20:22:58;11.80;99.90
46608;DHT22;32330;51.936;7.184;2022-10-22T20:25:23;11.80;99.90
46608;DHT22;32330;51.936;7.184;2022-10-22T20:27:49;11.70;99.90
46608;DHT22;32330;51.936;7.184;2022-10-22T20:30:14;11.80;99.90
46608;DHT22;32330;51.936;7.184;2022-10-22T20:32:40;11.80;99.90
46608;DHT22;32330;51.936;7.184;2022-10-22T20:35:06;11.80;99.90
46608;DHT22;32330;51.936;7.184;2022-10-22T20:37:33;11.80;99.90
46608;DHT22;32330;51.936;7.184;2022-10-22T20:39:58;11.80;99.90
46608;DHT22;32330;51.936;7.184;2022-10-22T20:42:24;11.80;99.90
46608;DHT22;32330;51.936;7.184;2022-10-22T20:44:49;11.80;99.90
46608;DHT22;32330;51.936;7.184;2022-10-22T20:47:15;11.80;99.90
46608;DHT22;32330;51.936;7.184;2022-10-22T20:49:41;11.80;99.90
46608;DHT22;32330;51.936;7.184;2022-10-22T20:52:07;11.70;99.90
46608;DHT22;32330;51.936;7.184;2022-10-22T20:54:32;11.70;99.90
